Enrico Franzoi

Info Calendar Grand Tours #3Monuments #10Victories 2018 2017 2016 2015 2014 2013 2012 2011 2010 2009 2008 2007 2006 2005 2004 2003 2002 2001 Team matesComments

Teams INFO: we are currently re-structuring the UCI-rank

Season Div. Team FC-rank UCI-rank Race days * Wins * Km *
2018 CX - Italy - - - - -
2014 CONT Marchiol - Emisfero 2269(10p) - 22 - 2912.9
2012 CONT Miche - Guerciotti 1437(37p) - 11 - 1528.0
2011 CONT BKCP - Powerplus - - - - -
2010 CONT BKCP - Powerplus 1001(70p) - 25 - 3713.2
Show more seasons..
* from UCI races

2006 Results

# What Date Pos GC What Race FC-rank
points
2006-12-29 CX: C2 Superprestige 29.12 3 CX - Middelkeke -
2006-12-08 CX: CDM World Cup 08.12 5 CX - Milano -
2006-11-05 CX: C2 Ciclocross 05.11 2 CX - Fae Di Oderzo -
2006-11-04 CX: CDM World Cup 04.11 8 CX - Trevisio -
2006-10-12 1.HC One-day race 12.10 DNF 176.0 km Gran Piemonte -
2006-10-08 1.PT2 One-day race 08.10 58 254.5 km Paris - Tours -
2006-10-01 CX: CDM EKZ CrossTour 01.10 5 CX - Aigle -
2006-09-17 GT2 Grand Tour 26.08-17.09 97 Vuelta a España -
2006-08-15 2.HC Stage race 05.08-15.08 55 Volta a Portugal -
2006-06-20 CN Pordenone 20.06 10 38.4 km CN Italy ITT -
2006-06-18 PT T Time Trial 18.06 19 48.6 km Eindhoven (TTT) 7
2006-06-11 2.1 Stage race 08.06-11.06 44 Tour de Slovénie -
2006-05-21 2.PT Stage race 15.05-21.05 140 Volta Catalunya -
2006-04-09 1.PT1 Monument 09.04 56 259.0 km Paris - Roubaix -
2006-04-05 1.PT2 Northern 05.04 DNF 210.0 km Gent - Wevelgem -
2006-04-02 1.PT1 Monument 02.04 56 258.0 km Ronde van Vlaanderen -
2006-03-30 2.HC Stage race 28.03-30.03 9 Driedaagse De Panne 52
2006-03-26 1.1 One-day race 26.03 DNF 190.0 km Brabantse Pijl -
2006-03-25 1.HC Northern 25.03 38 198.0 km E3 Harelbeke -
2006-03-12 2.PT Stage race 05.03-12.03 88 Paris - Nice -
2006-02-22 CX: CDM World Cup 22.02 3 CX - Hoogerheide -
2006-02-22 CX: CDM World Cup 23.10-22.02 7 CX - UCI World Cup -
2006-02-19 CX: C1 bpost trofee 01.11-19.02 7 CX - Trofee Bpost Bank -
2006-02-05 CX: C1 Superprestige 05.02 9 CX - Hoogstraten -
2006-02-04 CX: C2 bpost trofee 04.02 9 CX - Lille -
2006-01-29 CX: CM Zeddam 29.01 7 CX - World Championship -
2006-01-15 CX: CDM World Cup 15.01 8 CX - Lievin -
2006-01-01 CX: C2 bpost trofee 01.01 5 CX - Baal -
2006-09-17 GT2 21.stage 17.09 121 150 km Vuelta a España -
2006-09-16 GT2 20.stage 16.09 134 28 km Vuelta a España -
2006-09-15 GT2 19.stage 15.09 65 195 km Vuelta a España -
2006-09-14 GT2 18.stage 14.09 94 153 km Vuelta a España -
2006-09-13 GT2 17.stage 13.09 103 167 km Vuelta a España -
2006-09-12 GT2 16.stage 12.09 103 145 km Vuelta a España -
2006-09-10 GT2 15.stage 10.09 33 175 km Vuelta a España -
2006-09-09 GT2 14.stage 09.09 68 33 km Vuelta a España -
2006-09-08 GT2 13.stage 08.09 86 170 km Vuelta a España -
2006-09-07 GT2 12.stage 07.09 137 162 km Vuelta a España -
2006-09-06 GT2 11.stage 06.09 124 165 km Vuelta a España -
2006-09-05 GT2 10.stage 05.09 96 190 km Vuelta a España -
2006-09-03 GT2 09.stage 03.09 96 206 km Vuelta a España -
2006-09-02 GT2 08.stage 02.09 85 173 km Vuelta a España -
2006-09-01 GT2 07.stage 01.09 74 148 km Vuelta a España -
2006-08-31 GT2 06.stage 31.08 129 155 km Vuelta a España -
2006-08-30 GT2 05.stage 30.08 112 178 km Vuelta a España -
2006-08-29 GT2 04.stage 29.08 131 142 km Vuelta a España -
2006-08-28 GT2 03.stage 28.08 125 220 km Vuelta a España -
2006-08-27 GT2 02.stage 27.08 104 167 km Vuelta a España -
2006-08-26 GT2 01.stage (TTT) 26.08 14 7 km Vuelta a España -
2006-08-15 2.HC 10.stage 15.08 41 39.6 km Volta a Portugal -
2006-08-14 2.HC 09.stage 14.08 24 144.1 km Volta a Portugal 2
2006-08-13 2.HC 08.stage 13.08 55 166.4 km Volta a Portugal -
2006-08-12 2.HC 07.stage 12.08 90 192.7 km Volta a Portugal -
2006-08-10 2.HC 06.stage 10.08 40 150.2 km Volta a Portugal -
2006-08-09 2.HC 05.stage 09.08 101 156.5 km Volta a Portugal -
2006-08-08 2.HC 04.stage 08.08 11 157.3 km Volta a Portugal 6
2006-08-07 2.HC 03.stage 07.08 14 170.7 km Volta a Portugal 5
2006-08-06 2.HC 02.stage 06.08 6 180.6 km Volta a Portugal 10
2006-08-05 2.HC 01.stage 05.08 53 186.5 km Volta a Portugal -
2006-06-11 2.1 04.stage 11.06 77 156 km Tour de Slovénie -
2006-06-10 2.1 03.stage 10.06 46 158 km Tour de Slovénie -
2006-06-09 2.1 02.stage 09.06 37 183 km Tour de Slovénie -
2006-06-08 2.1 01.stage 08.06 8 214 km Tour de Slovénie 5
2006-05-21 2.PT 07.stage 21.05 138 121 km Volta Catalunya -
2006-05-20 2.PT 06.stage 20.05 141 166 km Volta Catalunya -
2006-05-19 2.PT 05.stage 19.05 138 161 km Volta Catalunya -
2006-05-18 2.PT 04.stage 18.05 144 225 km Volta Catalunya -
2006-05-17 2.PT 03.stage 17.05 157 160 km Volta Catalunya -
2006-05-16 2.PT 02.stage 16.05 191 146 km Volta Catalunya -
2006-05-15 2.PT 01.stage 15.05 96 12 km Volta Catalunya -
2006-03-30 2.HC 04.stage 30.03 10 12 km Driedaagse De Panne 8
2006-03-30 2.HC 03.stage 30.03 17 119 km Driedaagse De Panne 4
2006-03-30 2.HC 02.stage 30.03 66 227 km Driedaagse De Panne -
2006-03-28 2.HC 01.stage 28.03 28 194 km Driedaagse De Panne 1
2006-03-12 2.PT 07.stage 12.03 93 134 km Paris - Nice -
2006-03-11 2.PT 06.stage 11.03 101 179 km Paris - Nice -
2006-03-10 2.PT 05.stage 10.03 91 201 km Paris - Nice -
2006-03-09 2.PT 04.stage 09.03 84 193 km Paris - Nice -
2006-03-08 2.PT 03.stage 08.03 68 168 km Paris - Nice -
2006-03-07 2.PT 02.stage 07.03 49 200 km Paris - Nice -
2006-03-06 2.PT 01.stage 06.03 165 193 km Paris - Nice -
2006-03-05 2.PT Prologue 05.03 79 4 km Paris - Nice -

Info

Name Enrico Franzoi

Nation Italy

Born36 year, Aug 8th 1982